TimeCET,TemperatureF,Dew PointF,Humidity,Sea Level PressureIn,VisibilityMPH,Wind Direction,Wind SpeedMPH,Gust SpeedMPH,PrecipitationIn,Events,Conditions,WindDirDegrees,DateUTC
12:15 AM,39.2,35.6,87,30.18,-9999.0,ENE,2.3,-,N/A,,Clear,60,2013-02-27 23:15:00
12:45 AM,39.2,35.6,87,30.18,-9999.0,ENE,3.5,-,N/A,,Clear,60,2013-02-27 23:45:00
1:15 AM,39.2,35.6,87,30.18,-9999.0,NE,3.5,-,N/A,,Clear,50,2013-02-28 00:15:00
1:45 AM,39.2,35.6,87,30.18,-9999.0,NNE,3.5,-,N/A,,Clear,20,2013-02-28 00:45:00
2:15 AM,37.4,35.6,93,30.18,-9999.0,NNE,2.3,-,N/A,,Clear,30,2013-02-28 01:15:00
2:45 AM,37.4,35.6,93,30.18,5.0,NE,3.5,-,N/A,,Unknown,40,2013-02-28 01:45:00
3:15 AM,35.6,33.8,93,30.18,5.0,ENE,3.5,-,N/A,,Unknown,60,2013-02-28 02:15:00
3:45 AM,35.6,35.6,100,30.18,5.0,NE,4.6,-,N/A,,Unknown,40,2013-02-28 02:45:00
4:15 AM,35.6,35.6,100,30.15,5.0,NNE,3.5,-,N/A,,Unknown,30,2013-02-28 03:15:00
4:45 AM,35.6,35.6,100,30.15,5.0,NNE,3.5,-,N/A,,Unknown,30,2013-02-28 03:45:00
5:15 AM,32.0,32.0,100,30.15,5.0,ENE,2.3,-,N/A,,Unknown,60,2013-02-28 04:15:00
5:45 AM,33.8,33.8,100,30.15,5.0,NE,3.5,-,N/A,,Unknown,40,2013-02-28 04:45:00
6:15 AM,33.8,33.8,100,30.15,5.0,NE,2.3,-,N/A,,Unknown,40,2013-02-28 05:15:00
6:45 AM,33.8,33.8,100,30.15,5.0,NE,3.5,-,N/A,,Unknown,50,2013-02-28 05:45:00
7:15 AM,33.8,33.8,100,30.15,5.0,NE,2.3,-,N/A,,Unknown,50,2013-02-28 06:15:00
7:45 AM,35.6,33.8,93,30.18,5.0,NNE,2.3,-,N/A,,Unknown,30,2013-02-28 06:45:00
8:15 AM,35.6,35.6,100,30.18,5.0,NE,3.5,-,N/A,,Unknown,50,2013-02-28 07:15:00
8:45 AM,39.2,35.6,87,30.21,5.0,NNE,5.8,-,N/A,,Unknown,30,2013-02-28 07:45:00
9:15 AM,41.0,37.4,87,30.21,5.0,NE,4.6,-,N/A,,Unknown,40,2013-02-28 08:15:00
9:45 AM,42.8,39.2,87,30.21,5.0,NNE,4.6,-,N/A,,Unknown,30,2013-02-28 08:45:00
10:15 AM,44.6,39.2,81,30.21,5.0,North,3.5,-,N/A,,Unknown,10,2013-02-28 09:15:00
10:45 AM,46.4,39.2,76,30.21,5.0,North,2.3,-,N/A,,Unknown,360,2013-02-28 09:45:00
11:15 AM,48.2,39.2,71,30.21,5.0,NNW,1.2,-,N/A,,Partly Cloudy,340,2013-02-28 10:15:00
11:45 AM,51.8,41.0,67,30.21,5.0,NNW,2.3,-,N/A,,Partly Cloudy,330,2013-02-28 10:45:00
12:15 PM,53.6,41.0,62,30.21,5.0,North,2.3,-,N/A,,Partly Cloudy,350,2013-02-28 11:15:00
12:45 PM,55.4,42.8,63,30.18,5.6,ESE,3.5,-,N/A,,Scattered Clouds,110,2013-02-28 11:45:00
1:15 PM,57.2,41.0,55,30.18,5.6,NNE,1.2,-,N/A,,Scattered Clouds,20,2013-02-28 12:15:00
1:45 PM,57.2,37.4,48,30.15,5.6,South,6.9,-,N/A,,Scattered Clouds,190,2013-02-28 12:45:00
2:15 PM,57.2,37.4,48,30.15,6.2,SW,6.9,-,N/A,,Scattered Clouds,220,2013-02-28 13:15:00
2:45 PM,57.2,37.4,48,30.15,6.2,South,8.1,-,N/A,,Scattered Clouds,180,2013-02-28 13:45:00
3:15 PM,55.4,41.0,58,30.15,6.2,SW,6.9,-,N/A,,Scattered Clouds,230,2013-02-28 14:15:00
3:45 PM,55.4,41.0,58,30.15,6.2,WSW,4.6,-,N/A,,Scattered Clouds,240,2013-02-28 14:45:00
4:15 PM,55.4,41.0,58,30.12,6.2,WSW,5.8,-,N/A,,Scattered Clouds,240,2013-02-28 15:15:00
4:45 PM,55.4,41.0,58,30.12,6.2,WSW,5.8,-,N/A,,Scattered Clouds,240,2013-02-28 15:45:00
5:15 PM,53.6,41.0,62,30.12,6.2,SW,8.1,-,N/A,,Partly Cloudy,230,2013-02-28 16:15:00
5:45 PM,51.8,41.0,67,30.12,-9999.0,WSW,4.6,-,N/A,,Clear,240,2013-02-28 16:45:00
6:15 PM,50.0,41.0,71,30.12,-9999.0,SSW,6.9,-,N/A,,Clear,200,2013-02-28 17:15:00
6:45 PM,51.8,44.6,76,30.12,-9999.0,South,6.9,-,N/A,,Clear,190,2013-02-28 17:45:00
7:15 PM,48.2,42.8,82,30.12,-9999.0,SSW,5.8,-,N/A,,Clear,200,2013-02-28 18:15:00
7:45 PM,48.2,42.8,82,30.12,-9999.0,South,1.2,-,N/A,,Clear,180,2013-02-28 18:45:00
8:15 PM,44.6,41.0,87,30.12,5.0,East,4.6,-,N/A,,Unknown,90,2013-02-28 19:15:00
8:45 PM,44.6,41.0,87,30.12,5.0,East,3.5,-,N/A,,Unknown,90,2013-02-28 19:45:00
9:15 PM,44.6,42.8,93,30.12,5.0,East,4.6,-,N/A,,Unknown,100,2013-02-28 20:15:00
9:45 PM,44.6,41.0,87,30.12,5.0,East,4.6,-,N/A,,Unknown,100,2013-02-28 20:45:00
10:15 PM,42.8,42.8,100,30.12,5.0,East,4.6,-,N/A,,Unknown,100,2013-02-28 21:15:00
10:45 PM,42.8,41.0,93,30.12,5.0,East,3.5,-,N/A,,Unknown,80,2013-02-28 21:45:00
11:15 PM,42.8,41.0,93,30.12,5.0,NE,3.5,-,N/A,,Unknown,50,2013-02-28 22:15:00
11:45 PM,41.0,41.0,100,30.12,5.6,NE,3.5,-,N/A,,Unknown,50,2013-02-28 22:45:00